sensor_id;sensor_type;location;lat;lon;timestamp;pressure;altitude;pressure_sealevel;temperature;humidity
73817;BME280;62146;53.232;-1.304;2023-03-23T00:00:43;97987.59;;;9.55;100.00
73817;BME280;62146;53.232;-1.304;2023-03-23T00:03:09;97978.19;;;9.49;100.00
73817;BME280;62146;53.232;-1.304;2023-03-23T00:05:34;97985.84;;;9.51;100.00
73817;BME280;62146;53.232;-1.304;2023-03-23T00:08:02;97986.72;;;9.46;100.00
73817;BME280;62146;53.232;-1.304;2023-03-23T00:10:29;97987.16;;;9.35;100.00
73817;BME280;62146;53.232;-1.304;2023-03-23T00:12:58;97984.09;;;9.28;100.00
73817;BME280;62146;53.232;-1.304;2023-03-23T00:15:28;98002.63;;;9.28;100.00
73817;BME280;62146;53.232;-1.304;2023-03-23T00:17:59;97998.19;;;9.24;100.00
73817;BME280;62146;53.232;-1.304;2023-03-23T00:20:30;98000.94;;;9.19;100.00
73817;BME280;62146;53.232;-1.304;2023-03-23T00:23:05;98009.13;;;9.17;100.00
73817;BME280;62146;53.232;-1.304;2023-03-23T00:25:32;97998.56;;;9.17;100.00
73817;BME280;62146;53.232;-1.304;2023-03-23T00:27:57;98007.66;;;9.11;100.00
73817;BME280;62146;53.232;-1.304;2023-03-23T00:30:23;98005.66;;;9.04;100.00
73817;BME280;62146;53.232;-1.304;2023-03-23T00:32:48;98012.53;;;9.05;100.00
73817;BME280;62146;53.232;-1.304;2023-03-23T00:35:16;98026.91;;;8.99;100.00
73817;BME280;62146;53.232;-1.304;2023-03-23T00:37:43;98032.75;;;8.96;100.00
73817;BME280;62146;53.232;-1.304;2023-03-23T00:40:09;98036.25;;;8.91;100.00
73817;BME280;62146;53.232;-1.304;2023-03-23T00:42:35;98041.03;;;8.89;100.00
73817;BME280;62146;53.232;-1.304;2023-03-23T00:45:04;98039.94;;;8.90;100.00
73817;BME280;62146;53.232;-1.304;2023-03-23T00:47:36;98041.88;;;8.85;100.00
73817;BME280;62146;53.232;-1.304;2023-03-23T00:50:03;98036.38;;;8.82;100.00
73817;BME280;62146;53.232;-1.304;2023-03-23T00:52:30;98043.31;;;8.78;100.00
73817;BME280;62146;53.232;-1.304;2023-03-23T00:54:56;98051.53;;;8.76;100.00
73817;BME280;62146;53.232;-1.304;2023-03-23T00:57:21;98053.97;;;8.73;100.00
73817;BME280;62146;53.232;-1.304;2023-03-23T00:59:52;98054.75;;;8.73;100.00
73817;BME280;62146;53.232;-1.304;2023-03-23T01:02:18;98057.31;;;8.78;100.00
73817;BME280;62146;53.232;-1.304;2023-03-23T01:04:44;98070.59;;;8.73;100.00
73817;BME280;62146;53.232;-1.304;2023-03-23T01:07:11;98075.66;;;8.70;100.00
73817;BME280;62146;53.232;-1.304;2023-03-23T01:09:38;98073.50;;;8.72;100.00
73817;BME280;62146;53.232;-1.304;2023-03-23T01:12:10;98069.81;;;8.73;100.00
73817;BME280;62146;53.232;-1.304;2023-03-23T01:14:36;98078.28;;;8.70;100.00
73817;BME280;62146;53.232;-1.304;2023-03-23T01:17:01;98079.38;;;8.69;100.00
73817;BME280;62146;53.232;-1.304;2023-03-23T01:19:26;98089.66;;;8.70;100.00
73817;BME280;62146;53.232;-1.304;2023-03-23T01:21:52;98081.50;;;8.67;100.00
73817;BME280;62146;53.232;-1.304;2023-03-23T01:24:17;98078.00;;;8.71;100.00
73817;BME280;62146;53.232;-1.304;2023-03-23T01:26:43;98091.50;;;8.70;100.00
73817;BME280;62146;53.232;-1.304;2023-03-23T01:29:08;98077.00;;;8.67;100.00
73817;BME280;62146;53.232;-1.304;2023-03-23T01:31:34;98086.56;;;8.63;100.00
73817;BME280;62146;53.232;-1.304;2023-03-23T01:34:02;98082.66;;;8.61;100.00
73817;BME280;62146;53.232;-1.304;2023-03-23T01:36:29;98086.09;;;8.56;100.00
73817;BME280;62146;53.232;-1.304;2023-03-23T01:39:02;98088.81;;;8.52;100.00
73817;BME280;62146;53.232;-1.304;2023-03-23T01:41:29;98085.47;;;8.46;100.00
73817;BME280;62146;53.232;-1.304;2023-03-23T01:44:04;98091.84;;;8.40;100.00
73817;BME280;62146;53.232;-1.304;2023-03-23T01:46:35;98108.25;;;8.37;100.00
73817;BME280;62146;53.232;-1.304;2023-03-23T01:49:17;98101.19;;;8.33;100.00
73817;BME280;62146;53.232;-1.304;2023-03-23T01:51:47;98098.59;;;8.28;100.00
73817;BME280;62146;53.232;-1.304;2023-03-23T01:54:15;98112.31;;;8.30;100.00
73817;BME280;62146;53.232;-1.304;2023-03-23T01:56:49;98113.38;;;8.29;100.00
73817;BME280;62146;53.232;-1.304;2023-03-23T01:59:17;98121.84;;;8.26;100.00
73817;BME280;62146;53.232;-1.304;2023-03-23T02:01:45;98122.69;;;8.22;100.00
73817;BME280;62146;53.232;-1.304;2023-03-23T02:04:13;98120.63;;;8.19;100.00
73817;BME280;62146;53.232;-1.304;2023-03-23T02:06:40;98117.25;;;8.13;100.00
73817;BME280;62146;53.232;-1.304;2023-03-23T02:09:06;98132.53;;;8.16;100.00
73817;BME280;62146;53.232;-1.304;2023-03-23T02:11:32;98142.06;;;8.12;100.00
73817;BME280;62146;53.232;-1.304;2023-03-23T02:13:58;98148.97;;;8.08;100.00
73817;BME280;62146;53.232;-1.304;2023-03-23T02:17:15;98156.91;;;8.03;100.00
73817;BME280;62146;53.232;-1.304;2023-03-23T02:25:55;98154.84;;;7.96;100.00
73817;BME280;62146;53.232;-1.304;2023-03-23T02:31:21;98159.09;;;7.92;100.00
73817;BME280;62146;53.232;-1.304;2023-03-23T02:33:58;98146.75;;;7.87;100.00
73817;BME280;62146;53.232;-1.304;2023-03-23T02:36:38;98154.41;;;7.84;100.00
73817;BME280;62146;53.232;-1.304;2023-03-23T02:39:34;98159.75;;;7.79;100.00
73817;BME280;62146;53.232;-1.304;2023-03-23T02:42:07;98146.31;;;7.75;100.00
73817;BME280;62146;53.232;-1.304;2023-03-23T02:44:36;98156.63;;;7.72;100.00
73817;BME280;62146;53.232;-1.304;2023-03-23T02:47:07;98147.66;;;7.73;100.00
73817;BME280;62146;53.232;-1.304;2023-03-23T02:49:36;98161.13;;;7.72;100.00
73817;BME280;62146;53.232;-1.304;2023-03-23T02:52:12;98155.06;;;7.71;100.00
73817;BME280;62146;53.232;-1.304;2023-03-23T02:54:42;98163.25;;;7.70;100.00
73817;BME280;62146;53.232;-1.304;2023-03-23T02:57:09;98168.00;;;7.68;100.00
73817;BME280;62146;53.232;-1.304;2023-03-23T02:59:35;98173.56;;;7.66;100.00
73817;BME280;62146;53.232;-1.304;2023-03-23T03:02:10;98182.25;;;7.67;100.00
73817;BME280;62146;53.232;-1.304;2023-03-23T03:04:38;98177.81;;;7.62;100.00
73817;BME280;62146;53.232;-1.304;2023-03-23T03:07:23;98171.53;;;7.58;100.00
73817;BME280;62146;53.232;-1.304;2023-03-23T03:09:59;98183.34;;;7.61;100.00
73817;BME280;62146;53.232;-1.304;2023-03-23T03:15:15;98174.16;;;7.53;100.00
73817;BME280;62146;53.232;-1.304;2023-03-23T03:20:41;98175.53;;;7.46;100.00
73817;BME280;62146;53.232;-1.304;2023-03-23T03:23:10;98181.63;;;7.47;100.00
73817;BME280;62146;53.232;-1.304;2023-03-23T03:25:39;98183.22;;;7.43;100.00
73817;BME280;62146;53.232;-1.304;2023-03-23T03:28:06;98187.47;;;7.39;100.00
73817;BME280;62146;53.232;-1.304;2023-03-23T03:30:33;98199.03;;;7.43;100.00
73817;BME280;62146;53.232;-1.304;2023-03-23T03:33:01;98193.53;;;7.39;100.00
73817;BME280;62146;53.232;-1.304;2023-03-23T03:35:29;98193.53;;;7.39;100.00
73817;BME280;62146;53.232;-1.304;2023-03-23T03:37:56;98196.47;;;7.33;100.00
73817;BME280;62146;53.232;-1.304;2023-03-23T03:40:23;98198.56;;;7.36;100.00
73817;BME280;62146;53.232;-1.304;2023-03-23T03:42:49;98195.66;;;7.32;100.00
73817;BME280;62146;53.232;-1.304;2023-03-23T03:45:19;98198.34;;;7.27;100.00
73817;BME280;62146;53.232;-1.304;2023-03-23T03:47:45;98206.25;;;7.22;100.00
73817;BME280;62146;53.232;-1.304;2023-03-23T03:50:11;98205.22;;;7.23;100.00
73817;BME280;62146;53.232;-1.304;2023-03-23T03:52:38;98200.69;;;7.29;100.00
73817;BME280;62146;53.232;-1.304;2023-03-23T03:55:05;98213.91;;;7.24;100.00
73817;BME280;62146;53.232;-1.304;2023-03-23T03:57:33;98208.13;;;7.17;100.00
73817;BME280;62146;53.232;-1.304;2023-03-23T03:59:58;98209.75;;;7.13;100.00
73817;BME280;62146;53.232;-1.304;2023-03-23T04:02:24;98206.81;;;7.15;100.00
73817;BME280;62146;53.232;-1.304;2023-03-23T04:04:50;98220.31;;;7.08;100.00
73817;BME280;62146;53.232;-1.304;2023-03-23T04:07:18;98211.06;;;7.11;100.00
73817;BME280;62146;53.232;-1.304;2023-03-23T04:09:45;98219.25;;;7.09;100.00
73817;BME280;62146;53.232;-1.304;2023-03-23T04:12:14;98232.41;;;7.04;100.00
73817;BME280;62146;53.232;-1.304;2023-03-23T04:14:40;98225.84;;;7.07;100.00
73817;BME280;62146;53.232;-1.304;2023-03-23T04:17:06;98226.94;;;7.01;100.00
73817;BME280;62146;53.232;-1.304;2023-03-23T04:19:35;98240.09;;;7.01;100.00
73817;BME280;62146;53.232;-1.304;2023-03-23T04:22:02;98232.19;;;7.01;100.00
73817;BME280;62146;53.232;-1.304;2023-03-23T04:24:28;98232.19;;;7.01;100.00
73817;BME280;62146;53.232;-1.304;2023-03-23T04:26:57;98231.38;;;7.05;100.00
73817;BME280;62146;53.232;-1.304;2023-03-23T04:29:23;98229.28;;;7.02;100.00
73817;BME280;62146;53.232;-1.304;2023-03-23T04:31:49;98237.69;;;7.04;100.00
73817;BME280;62146;53.232;-1.304;2023-03-23T04:34:16;98234.31;;;6.99;100.00
73817;BME280;62146;53.232;-1.304;2023-03-23T04:36:41;98233.78;;;7.02;100.00
73817;BME280;62146;53.232;-1.304;2023-03-23T04:39:08;98240.31;;;7.04;100.00
73817;BME280;62146;53.232;-1.304;2023-03-23T04:41:38;98243.25;;;6.98;100.00
73817;BME280;62146;53.232;-1.304;2023-03-23T04:44:05;98253.56;;;6.94;100.00
73817;BME280;62146;53.232;-1.304;2023-03-23T04:46:31;98255.66;;;6.93;100.00
73817;BME280;62146;53.232;-1.304;2023-03-23T04:48:58;98258.81;;;6.94;100.00
73817;BME280;62146;53.232;-1.304;2023-03-23T04:51:25;98257.78;;;6.91;100.00
73817;BME280;62146;53.232;-1.304;2023-03-23T04:53:52;98248.31;;;6.90;100.00
73817;BME280;62146;53.232;-1.304;2023-03-23T04:56:18;98251.97;;;6.89;100.00
73817;BME280;62146;53.232;-1.304;2023-03-23T04:58:44;98247.78;;;6.83;100.00
73817;BME280;62146;53.232;-1.304;2023-03-23T05:01:11;98243.03;;;6.85;100.00
73817;BME280;62146;53.232;-1.304;2023-03-23T05:03:39;98227.75;;;6.87;100.00
73817;BME280;62146;53.232;-1.304;2023-03-23T05:06:06;98230.66;;;6.80;100.00
73817;BME280;62146;53.232;-1.304;2023-03-23T05:08:32;98228.03;;;6.80;100.00
73817;BME280;62146;53.232;-1.304;2023-03-23T05:10:59;98233.59;;;6.79;100.00
73817;BME280;62146;53.232;-1.304;2023-03-23T05:13:27;98233.59;;;6.79;100.00
73817;BME280;62146;53.232;-1.304;2023-03-23T05:15:53;98232.00;;;6.78;100.00
73817;BME280;62146;53.232;-1.304;2023-03-23T05:18:19;98235.69;;;6.77;100.00
73817;BME280;62146;53.232;-1.304;2023-03-23T05:20:45;98233.56;;;6.74;100.00
73817;BME280;62146;53.232;-1.304;2023-03-23T05:23:11;98224.09;;;6.73;100.00
73817;BME280;62146;53.232;-1.304;2023-03-23T05:25:38;98229.63;;;6.76;100.00
73817;BME280;62146;53.232;-1.304;2023-03-23T05:28:09;98224.91;;;6.68;100.00
73817;BME280;62146;53.232;-1.304;2023-03-23T05:30:37;98234.38;;;6.69;100.00
73817;BME280;62146;53.232;-1.304;2023-03-23T05:33:04;98232.56;;;6.65;100.00
73817;BME280;62146;53.232;-1.304;2023-03-23T05:35:30;98237.03;;;6.65;100.00
73817;BME280;62146;53.232;-1.304;2023-03-23T05:37:56;98233.34;;;6.66;100.00
73817;BME280;62146;53.232;-1.304;2023-03-23T05:40:22;98229.41;;;6.68;100.00
73817;BME280;62146;53.232;-1.304;2023-03-23T05:42:51;98229.13;;;6.65;100.00
73817;BME280;62146;53.232;-1.304;2023-03-23T05:45:17;98230.72;;;6.61;100.00
73817;BME280;62146;53.232;-1.304;2023-03-23T05:47:43;98226.50;;;6.65;100.00
73817;BME280;62146;53.232;-1.304;2023-03-23T05:50:09;98224.66;;;6.65;100.00
73817;BME280;62146;53.232;-1.304;2023-03-23T05:52:36;98232.56;;;6.60;100.00
73817;BME280;62146;53.232;-1.304;2023-03-23T05:55:02;98231.78;;;6.55;100.00
73817;BME280;62146;53.232;-1.304;2023-03-23T05:57:29;98231.78;;;6.50;100.00
73817;BME280;62146;53.232;-1.304;2023-03-23T05:59:55;98238.91;;;6.49;100.00
73817;BME280;62146;53.232;-1.304;2023-03-23T06:02:21;98236.25;;;6.54;100.00
73817;BME280;62146;53.232;-1.304;2023-03-23T06:04:50;98230.72;;;6.51;100.00
73817;BME280;62146;53.232;-1.304;2023-03-23T06:07:16;98241.03;;;6.47;100.00
73817;BME280;62146;53.232;-1.304;2023-03-23T06:09:41;98228.38;;;6.49;100.00
73817;BME280;62146;53.232;-1.304;2023-03-23T06:12:08;98227.88;;;6.47;100.00
73817;BME280;62146;53.232;-1.304;2023-03-23T06:14:36;98224.69;;;6.45;100.00
73817;BME280;62146;53.232;-1.304;2023-03-23T06:17:02;98228.66;;;6.48;100.00
73817;BME280;62146;53.232;-1.304;2023-03-23T06:19:27;98222.59;;;6.47;100.00
73817;BME280;62146;53.232;-1.304;2023-03-23T06:21:56;98214.97;;;6.46;100.00
73817;BME280;62146;53.232;-1.304;2023-03-23T06:24:22;98221.53;;;6.48;100.00
73817;BME280;62146;53.232;-1.304;2023-03-23T06:26:47;98217.56;;;6.51;100.00
73817;BME280;62146;53.232;-1.304;2023-03-23T06:29:14;98215.75;;;6.51;100.00
73817;BME280;62146;53.232;-1.304;2023-03-23T06:31:42;98225.47;;;6.51;100.00
73817;BME280;62146;53.232;-1.304;2023-03-23T06:34:08;98216.53;;;6.52;100.00
73817;BME280;62146;53.232;-1.304;2023-03-23T06:36:35;98233.38;;;6.51;100.00
73817;BME280;62146;53.232;-1.304;2023-03-23T06:39:02;98225.22;;;6.52;100.00
73817;BME280;62146;53.232;-1.304;2023-03-23T06:41:33;98220.19;;;6.61;100.00
73817;BME280;62146;53.232;-1.304;2023-03-23T06:43:59;98222.56;;;6.62;100.00
73817;BME280;62146;53.232;-1.304;2023-03-23T06:46:26;98224.94;;;6.59;100.00
73817;BME280;62146;53.232;-1.304;2023-03-23T06:48:53;98240.19;;;6.62;100.00
73817;BME280;62146;53.232;-1.304;2023-03-23T06:51:19;98228.09;;;6.61;100.00
73817;BME280;62146;53.232;-1.304;2023-03-23T06:53:45;98236.00;;;6.61;100.00
73817;BME280;62146;53.232;-1.304;2023-03-23T06:56:10;98230.72;;;6.61;100.00
73817;BME280;62146;53.232;-1.304;2023-03-23T06:58:37;98238.09;;;6.64;100.00
73817;BME280;62146;53.232;-1.304;2023-03-23T07:01:03;98230.97;;;6.69;100.00
73817;BME280;62146;53.232;-1.304;2023-03-23T07:03:29;98219.91;;;6.72;100.00
73817;BME280;62146;53.232;-1.304;2023-03-23T07:05:56;98218.31;;;6.76;100.00
73817;BME280;62146;53.232;-1.304;2023-03-23T07:08:22;98226.19;;;6.81;100.00
73817;BME280;62146;53.232;-1.304;2023-03-23T07:10:50;98221.97;;;6.85;100.00
73817;BME280;62146;53.232;-1.304;2023-03-23T07:13:17;98215.38;;;6.87;100.00
73817;BME280;62146;53.232;-1.304;2023-03-23T07:15:42;98220.91;;;6.91;100.00
73817;BME280;62146;53.232;-1.304;2023-03-23T07:18:09;98223.00;;;6.94;100.00
73817;BME280;62146;53.232;-1.304;2023-03-23T07:20:35;98216.66;;;6.94;100.00
73817;BME280;62146;53.232;-1.304;2023-03-23T07:23:01;98222.19;;;6.98;100.00
73817;BME280;62146;53.232;-1.304;2023-03-23T07:25:27;98229.81;;;6.99;100.00
73817;BME280;62146;53.232;-1.304;2023-03-23T07:27:53;98228.75;;;7.00;100.00
73817;BME280;62146;53.232;-1.304;2023-03-23T07:30:19;98217.69;;;7.03;100.00
73817;BME280;62146;53.232;-1.304;2023-03-23T07:32:44;98224.25;;;7.06;100.00
73817;BME280;62146;53.232;-1.304;2023-03-23T07:35:10;98226.38;;;7.09;100.00
73817;BME280;62146;53.232;-1.304;2023-03-23T07:37:36;98220.03;;;7.10;100.00
73817;BME280;62146;53.232;-1.304;2023-03-23T07:40:03;98225.56;;;7.13;100.00
73817;BME280;62146;53.232;-1.304;2023-03-23T07:42:43;98224.19;;;7.16;100.00
73817;BME280;62146;53.232;-1.304;2023-03-23T07:45:13;98224.44;;;7.19;100.00
73817;BME280;62146;53.232;-1.304;2023-03-23T07:47:41;98220.22;;;7.23;100.00
73817;BME280;62146;53.232;-1.304;2023-03-23T07:50:08;98221.53;;;7.25;100.00
73817;BME280;62146;53.232;-1.304;2023-03-23T07:52:35;98213.88;;;7.29;100.00
73817;BME280;62146;53.232;-1.304;2023-03-23T07:55:01;98221.25;;;7.32;100.00
73817;BME280;62146;53.232;-1.304;2023-03-23T07:57:28;98219.38;;;7.37;100.00
73817;BME280;62146;53.232;-1.304;2023-03-23T07:59:53;98225.94;;;7.40;100.00
73817;BME280;62146;53.232;-1.304;2023-03-23T08:02:19;98230.13;;;7.46;100.00
73817;BME280;62146;53.232;-1.304;2023-03-23T08:04:44;98229.28;;;7.50;100.00
73817;BME280;62146;53.232;-1.304;2023-03-23T08:07:10;98241.41;;;7.56;100.00
73817;BME280;62146;53.232;-1.304;2023-03-23T08:09:38;98228.72;;;7.63;100.00
73817;BME280;62146;53.232;-1.304;2023-03-23T08:12:04;98233.41;;;7.71;100.00
73817;BME280;62146;53.232;-1.304;2023-03-23T08:14:30;98233.38;;;7.75;100.00
73817;BME280;62146;53.232;-1.304;2023-03-23T08:16:56;98240.97;;;7.82;100.00
73817;BME280;62146;53.232;-1.304;2023-03-23T08:19:22;98232.78;;;7.88;100.00
73817;BME280;62146;53.232;-1.304;2023-03-23T08:21:48;98226.66;;;7.93;100.00
73817;BME280;62146;53.232;-1.304;2023-03-23T08:24:14;98234.00;;;8.01;100.00
73817;BME280;62146;53.232;-1.304;2023-03-23T08:26:40;98230.78;;;8.08;100.00
73817;BME280;62146;53.232;-1.304;2023-03-23T08:29:07;98231.28;;;8.15;100.00
73817;BME280;62146;53.232;-1.304;2023-03-23T08:31:34;98231.44;;;8.24;100.00
73817;BME280;62146;53.232;-1.304;2023-03-23T08:34:03;98220.28;;;8.31;100.00
73817;BME280;62146;53.232;-1.304;2023-03-23T08:36:32;98214.91;;;8.41;100.00
73817;BME280;62146;53.232;-1.304;2023-03-23T08:38:58;98221.44;;;8.49;100.00
73817;BME280;62146;53.232;-1.304;2023-03-23T08:41:24;98224.00;;;8.58;100.00
73817;BME280;62146;53.232;-1.304;2023-03-23T08:43:50;98224.94;;;8.67;100.00
73817;BME280;62146;53.232;-1.304;2023-03-23T08:46:18;98216.91;;;8.77;100.00
73817;BME280;62146;53.232;-1.304;2023-03-23T08:48:45;98215.75;;;8.88;100.00
73817;BME280;62146;53.232;-1.304;2023-03-23T08:51:11;98216.91;;;9.00;100.00
73817;BME280;62146;53.232;-1.304;2023-03-23T08:53:37;98207.50;;;9.12;100.00
73817;BME280;62146;53.232;-1.304;2023-03-23T08:56:07;98198.59;;;9.27;100.00
73817;BME280;62146;53.232;-1.304;2023-03-23T08:58:37;98215.34;;;9.40;100.00
73817;BME280;62146;53.232;-1.304;2023-03-23T09:01:04;98218.84;;;9.54;100.00
73817;BME280;62146;53.232;-1.304;2023-03-23T09:03:33;98211.28;;;9.66;100.00
73817;BME280;62146;53.232;-1.304;2023-03-23T09:06:00;98205.28;;;9.79;100.00
73817;BME280;62146;53.232;-1.304;2023-03-23T09:08:27;98208.31;;;9.90;100.00
73817;BME280;62146;53.232;-1.304;2023-03-23T09:10:57;98222.38;;;10.04;100.00
73817;BME280;62146;53.232;-1.304;2023-03-23T09:13:23;98214.19;;;10.19;100.00
73817;BME280;62146;53.232;-1.304;2023-03-23T09:15:49;98215.28;;;10.31;100.00
73817;BME280;62146;53.232;-1.304;2023-03-23T09:18:15;98226.16;;;10.48;100.00
73817;BME280;62146;53.232;-1.304;2023-03-23T09:20:41;98204.94;;;10.61;100.00
73817;BME280;62146;53.232;-1.304;2023-03-23T09:23:07;98219.59;;;10.72;100.00
73817;BME280;62146;53.232;-1.304;2023-03-23T09:25:33;98219.63;;;10.85;100.00
73817;BME280;62146;53.232;-1.304;2023-03-23T09:27:58;98205.06;;;10.96;100.00
73817;BME280;62146;53.232;-1.304;2023-03-23T09:30:30;98210.38;;;11.09;100.00
73817;BME280;62146;53.232;-1.304;2023-03-23T09:32:56;98195.22;;;11.23;100.00
73817;BME280;62146;53.232;-1.304;2023-03-23T09:35:23;98202.69;;;11.34;100.00
73817;BME280;62146;53.232;-1.304;2023-03-23T09:37:51;98198.00;;;11.45;100.00
73817;BME280;62146;53.232;-1.304;2023-03-23T09:40:25;98192.28;;;11.51;100.00
73817;BME280;62146;53.232;-1.304;2023-03-23T09:45:46;98200.38;;;11.68;100.00
73817;BME280;62146;53.232;-1.304;2023-03-23T09:48:29;98198.00;;;11.79;100.00
73817;BME280;62146;53.232;-1.304;2023-03-23T09:51:08;98191.38;;;11.90;100.00
73817;BME280;62146;53.232;-1.304;2023-03-23T09:53:39;98197.41;;;12.04;100.00
73817;BME280;62146;53.232;-1.304;2023-03-23T09:56:11;98198.63;;;12.20;100.00
73817;BME280;62146;53.232;-1.304;2023-03-23T10:03:41;98212.00;;;12.58;100.00
73817;BME280;62146;53.232;-1.304;2023-03-23T10:06:11;98220.19;;;12.70;100.00
73817;BME280;62146;53.232;-1.304;2023-03-23T10:08:43;98216.81;;;12.78;100.00
73817;BME280;62146;53.232;-1.304;2023-03-23T10:11:22;98215.28;;;12.85;100.00
73817;BME280;62146;53.232;-1.304;2023-03-23T10:16:32;98218.91;;;12.97;100.00
73817;BME280;62146;53.232;-1.304;2023-03-23T10:19:11;98226.16;;;13.05;100.00
73817;BME280;62146;53.232;-1.304;2023-03-23T10:21:42;98213.19;;;13.12;100.00
73817;BME280;62146;53.232;-1.304;2023-03-23T10:24:14;98215.88;;;13.20;100.00
73817;BME280;62146;53.232;-1.304;2023-03-23T10:27:27;98209.66;;;13.33;100.00
73817;BME280;62146;53.232;-1.304;2023-03-23T10:30:13;98225.34;;;13.43;100.00
73817;BME280;62146;53.232;-1.304;2023-03-23T10:32:50;98227.09;;;13.56;100.00
73817;BME280;62146;53.232;-1.304;2023-03-23T10:35:28;98210.97;;;13.69;100.00
73817;BME280;62146;53.232;-1.304;2023-03-23T10:38:00;98224.00;;;13.79;100.00
73817;BME280;62146;53.232;-1.304;2023-03-23T10:40:29;98225.25;;;13.90;100.00
73817;BME280;62146;53.232;-1.304;2023-03-23T10:42:57;98213.53;;;13.99;100.00
73817;BME280;62146;53.232;-1.304;2023-03-23T10:45:32;98227.47;;;14.13;100.00
73817;BME280;62146;53.232;-1.304;2023-03-23T10:50:31;98223.06;;;14.33;100.00
73817;BME280;62146;53.232;-1.304;2023-03-23T10:53:00;98233.41;;;14.43;100.00
73817;BME280;62146;53.232;-1.304;2023-03-23T10:55:38;98216.75;;;14.54;100.00
73817;BME280;62146;53.232;-1.304;2023-03-23T10:58:12;98212.63;;;14.65;100.00
73817;BME280;62146;53.232;-1.304;2023-03-23T11:00:47;98205.88;;;14.76;100.00
73817;BME280;62146;53.232;-1.304;2023-03-23T11:05:42;98189.75;;;15.01;100.00
73817;BME280;62146;53.232;-1.304;2023-03-23T11:08:20;98193.97;;;15.10;100.00
73817;BME280;62146;53.232;-1.304;2023-03-23T11:10:52;98179.81;;;15.18;100.00
73817;BME280;62146;53.232;-1.304;2023-03-23T11:13:19;98171.72;;;15.27;100.00
73817;BME280;62146;53.232;-1.304;2023-03-23T11:15:47;98185.19;;;15.38;100.00
73817;BME280;62146;53.232;-1.304;2023-03-23T11:18:19;98187.47;;;15.48;100.00
73817;BME280;62146;53.232;-1.304;2023-03-23T11:20:54;98164.97;;;15.57;100.00
73817;BME280;62146;53.232;-1.304;2023-03-23T11:23:28;98179.03;;;15.66;100.00
73817;BME280;62146;53.232;-1.304;2023-03-23T11:26:18;98180.09;;;15.74;100.00
73817;BME280;62146;53.232;-1.304;2023-03-23T11:31:53;98165.44;;;15.91;100.00
73817;BME280;62146;53.232;-1.304;2023-03-23T11:37:09;98185.41;;;16.14;100.00
73817;BME280;62146;53.232;-1.304;2023-03-23T11:40:14;98178.69;;;16.28;100.00
73817;BME280;62146;53.232;-1.304;2023-03-23T11:45:19;98181.91;;;16.54;100.00
73817;BME280;62146;53.232;-1.304;2023-03-23T11:50:24;98186.06;;;16.75;100.00
73817;BME280;62146;53.232;-1.304;2023-03-23T11:55:57;98178.16;;;16.90;100.00
73817;BME280;62146;53.232;-1.304;2023-03-23T11:58:25;98180.63;;;16.95;100.00
73817;BME280;62146;53.232;-1.304;2023-03-23T12:06:01;98191.47;;;16.98;100.00
73817;BME280;62146;53.232;-1.304;2023-03-23T12:08:34;98189.88;;;16.97;100.00
73817;BME280;62146;53.232;-1.304;2023-03-23T12:22:35;98179.53;;;17.31;100.00
73817;BME280;62146;53.232;-1.304;2023-03-23T12:27:53;98180.09;;;17.48;100.00
73817;BME280;62146;53.232;-1.304;2023-03-23T12:45:07;98178.41;;;18.06;100.00
73817;BME280;62146;53.232;-1.304;2023-03-23T12:47:50;98178.72;;;18.17;100.00
73817;BME280;62146;53.232;-1.304;2023-03-23T12:53:18;98186.50;;;18.22;100.00
73817;BME280;62146;53.232;-1.304;2023-03-23T12:56:02;98206.75;;;18.19;100.00
73817;BME280;62146;53.232;-1.304;2023-03-23T12:58:34;98192.91;;;18.17;100.00
73817;BME280;62146;53.232;-1.304;2023-03-23T13:01:37;98173.78;;;18.19;100.00
73817;BME280;62146;53.232;-1.304;2023-03-23T13:04:14;98184.03;;;18.28;100.00
73817;BME280;62146;53.232;-1.304;2023-03-23T13:06:43;98179.38;;;18.41;100.00
73817;BME280;62146;53.232;-1.304;2023-03-23T13:09:24;98185.47;;;18.53;100.00
73817;BME280;62146;53.232;-1.304;2023-03-23T13:11:54;98181.84;;;18.61;100.00
73817;BME280;62146;53.232;-1.304;2023-03-23T13:20:01;98192.16;;;18.59;100.00
73817;BME280;62146;53.232;-1.304;2023-03-23T13:25:51;98155.44;;;18.63;100.00
73817;BME280;62146;53.232;-1.304;2023-03-23T13:28:21;98144.63;;;18.75;100.00
73817;BME280;62146;53.232;-1.304;2023-03-23T13:30:59;98151.16;;;18.89;100.00
73817;BME280;62146;53.232;-1.304;2023-03-23T13:33:29;98145.69;;;19.01;100.00
73817;BME280;62146;53.232;-1.304;2023-03-23T13:35:55;98145.50;;;19.09;100.00
73817;BME280;62146;53.232;-1.304;2023-03-23T13:38:25;98140.63;;;19.14;100.00
73817;BME280;62146;53.232;-1.304;2023-03-23T13:40:54;98135.88;;;19.23;100.00
73817;BME280;62146;53.232;-1.304;2023-03-23T13:43:31;98139.22;;;19.35;100.00
73817;BME280;62146;53.232;-1.304;2023-03-23T13:46:08;98123.38;;;19.49;100.00
73817;BME280;62146;53.232;-1.304;2023-03-23T13:57:01;98116.81;;;19.99;100.00
73817;BME280;62146;53.232;-1.304;2023-03-23T13:59:45;98124.31;;;20.09;100.00
73817;BME280;62146;53.232;-1.304;2023-03-23T14:04:53;98120.31;;;20.22;100.00
73817;BME280;62146;53.232;-1.304;2023-03-23T14:07:20;98110.38;;;20.26;100.00
73817;BME280;62146;53.232;-1.304;2023-03-23T14:09:45;98122.75;;;20.27;100.00
73817;BME280;62146;53.232;-1.304;2023-03-23T14:12:27;98116.22;;;20.28;100.00
73817;BME280;62146;53.232;-1.304;2023-03-23T14:15:01;98110.91;;;20.31;100.00
73817;BME280;62146;53.232;-1.304;2023-03-23T14:17:33;98113.59;;;20.31;100.00
73817;BME280;62146;53.232;-1.304;2023-03-23T14:19:59;98110.13;;;20.31;100.00
73817;BME280;62146;53.232;-1.304;2023-03-23T14:22:35;98115.06;;;20.29;100.00
73817;BME280;62146;53.232;-1.304;2023-03-23T14:27:30;98111.06;;;20.19;100.00
73817;BME280;62146;53.232;-1.304;2023-03-23T14:30:00;98112.19;;;20.18;100.00
73817;BME280;62146;53.232;-1.304;2023-03-23T14:32:28;98115.22;;;20.17;100.00
73817;BME280;62146;53.232;-1.304;2023-03-23T14:34:55;98107.84;;;20.14;100.00
73817;BME280;62146;53.232;-1.304;2023-03-23T14:37:21;98118.63;;;20.14;100.00
73817;BME280;62146;53.232;-1.304;2023-03-23T14:39:49;98117.50;;;20.15;100.00
73817;BME280;62146;53.232;-1.304;2023-03-23T14:42:17;98116.75;;;20.14;100.00